^^
Saratoga-Weather Station Historical Data
Daily Summary for June 8, 2020 Units:  Both    English   Metric
Daily Weekly Monthly Yearly Custom
  High: Low: Average:
Temperature: 98.1 °F /  36.7 °C 65.8 °F /  18.8 °C 81.5 °F /  27.5 °C
Dew Point: 67.1 °F /  19.5 °C 60.3 °F /  15.7 °C 62.6 °F /  17 °C
Humidity: 83% 29% 56%
Wind Speed: 6.9mph /  11.1km/h - 0.7mph /  1.1km/h
Wind Gust: 9mph /  14.5km/h - -
Wind- - SE
Pressure: 30.1 in /  1018.6 hPa 30 in /  1014.9 hPa -
Precipitation: 0 in /  0.0 mm    
Historical Graphs
 
 
Tabular Data for June 8, 2020
Time Temperature Dew Point Pressure Wind Wind Speed Wind Gust Humidity Rainfall Rate (Hourly) solar
00:01 73.4 °F /  23 °C 61.7 °F /  16.5 °C 30in /  1016.9hPa Calm     67% 0in /  0.0mm 0 W/m2
00:06 73.2 °F /  22.9 °C 61.5 °F /  16.4 °C 30in /  1016.9hPa Calm     67% 0in /  0.0mm 0 W/m2
00:12 73.2 °F /  22.9 °C 62.1 °F /  16.7 °C 30in /  1016.9hPa Calm     68% 0in /  0.0mm 0 W/m2
00:17 73 °F /  22.8 °C 61.9 °F /  16.6 °C 30in /  1016.9hPa Calm     68% 0in /  0.0mm 0 W/m2
00:22 72.9 °F /  22.7 °C 61.7 °F /  16.5 °C 30in /  1016.9hPa Calm     68% 0in /  0.0mm 0 W/m2
00:27 72.9 °F /  22.7 °C 61.7 °F /  16.5 °C 30in /  1016.9hPa Calm     68% 0in /  0.0mm 0 W/m2
00:32 72.7 °F /  22.6 °C 61.9 °F /  16.6 °C 30in /  1016.9hPa Calm     69% 0in /  0.0mm 0 W/m2
00:37 72.5 °F /  22.5 °C 61.7 °F /  16.5 °C 30in /  1016.9hPa Calm     69% 0in /  0.0mm 0 W/m2
00:42 72.3 °F /  22.4 °C 61.5 °F /  16.4 °C 30in /  1016.9hPa Calm     69% 0in /  0.0mm 0 W/m2
00:47 72.1 °F /  22.3 °C 61.9 °F /  16.6 °C 30in /  1016.9hPa Calm     70% 0in /  0.0mm 0 W/m2
00:52 72.1 °F /  22.3 °C 61.9 °F /  16.6 °C 30in /  1016.9hPa Calm     70% 0in /  0.0mm 0 W/m2
00:57 72 °F /  22.2 °C 61.7 °F /  16.5 °C 30in /  1016.9hPa Calm     70% 0in /  0.0mm 0 W/m2
01:02 71.8 °F /  22.1 °C 61.5 °F /  16.4 °C 30in /  1016.9hPa Calm     70% 0in /  0.0mm 0 W/m2
01:07 71.6 °F /  22 °C 61.7 °F /  16.5 °C 30in /  1016.9hPa Calm     71% 0in /  0.0mm 0 W/m2
01:12 71.4 °F /  21.9 °C 61.5 °F /  16.4 °C 30in /  1016.9hPa Calm     71% 0in /  0.0mm 0 W/m2
01:17 71.4 °F /  21.9 °C 61.5 °F /  16.4 °C 30in /  1016.9hPa Calm     71% 0in /  0.0mm 0 W/m2
01:22 71.2 °F /  21.8 °C 61.7 °F /  16.5 °C 30in /  1016.9hPa Calm     72% 0in /  0.0mm 0 W/m2
01:27 71.1 °F /  21.7 °C 61.2 °F /  16.2 °C 30in /  1016.9hPa Calm     71% 0in /  0.0mm 0 W/m2
01:32 71.1 °F /  21.7 °C 61.5 °F /  16.4 °C 30in /  1016.9hPa Calm     72% 0in /  0.0mm 0 W/m2
01:37 70.9 °F /  21.6 °C 61.3 °F /  16.3 °C 30in /  1016.9hPa Calm     72% 0in /  0.0mm 0 W/m2
01:42 70.9 °F /  21.6 °C 61.9 °F /  16.6 °C 30in /  1016.9hPa Calm     73% 0in /  0.0mm 0 W/m2
01:47 70.7 °F /  21.5 °C 61.7 °F /  16.5 °C 30in /  1016.9hPa Calm     73% 0in /  0.0mm 0 W/m2
01:52 70.5 °F /  21.4 °C 61.5 °F /  16.4 °C 30in /  1016.9hPa Calm     73% 0in /  0.0mm 0 W/m2
01:57 70.5 °F /  21.4 °C 61.5 °F /  16.4 °C 30in /  1016.9hPa Calm     73% 0in /  0.0mm 0 W/m2
02:02 70.3 °F /  21.3 °C 61.3 °F /  16.3 °C 30in /  1016.9hPa Calm     73% 0in /  0.0mm 0 W/m2
02:07 70.3 °F /  21.3 °C 61.3 °F /  16.3 °C 30in /  1016.9hPa Calm     73% 0in /  0.0mm 0 W/m2
02:12 70.2 °F /  21.2 °C 61.5 °F /  16.4 °C 30in /  1016.9hPa Calm     74% 0in /  0.0mm 0 W/m2
02:17 70.2 °F /  21.2 °C 61.5 °F /  16.4 °C 30in /  1016.9hPa Calm     74% 0in /  0.0mm 0 W/m2
02:22 70 °F /  21.1 °C 61.3 °F /  16.3 °C 30in /  1016.9hPa Calm     74% 0in /  0.0mm 0 W/m2
02:27 70 °F /  21.1 °C 61.3 °F /  16.3 °C 30in /  1016.9hPa Calm     74% 0in /  0.0mm 0 W/m2
02:32 69.8 °F /  21 °C 61.5 °F /  16.4 °C 30in /  1016.9hPa Calm     75% 0in /  0.0mm 0 W/m2
02:37 69.6 °F /  20.9 °C 61.3 °F /  16.3 °C 30in /  1016.9hPa Calm     75% 0in /  0.0mm 0 W/m2
02:42 69.4 °F /  20.8 °C 61.2 °F /  16.2 °C 30in /  1016.9hPa Calm     75% 0in /  0.0mm 0 W/m2
02:47 69.4 °F /  20.8 °C 61.2 °F /  16.2 °C 30in /  1016.9hPa Calm     75% 0in /  0.0mm 0 W/m2
02:52 69.3 °F /  20.7 °C 61.3 °F /  16.3 °C 30in /  1016.9hPa Calm     76% 0in /  0.0mm 0 W/m2
02:58 69.3 °F /  20.7 °C 61.3 °F /  16.3 °C 30in /  1016.9hPa Calm     76% 0in /  0.0mm 0 W/m2
03:03 69.1 °F /  20.6 °C 61.2 °F /  16.2 °C 30in /  1016.9hPa Calm     76% 0in /  0.0mm 0 W/m2
03:08 68.9 °F /  20.5 °C 61 °F /  16.1 °C 30in /  1016.9hPa Calm     76% 0in /  0.0mm 0 W/m2
03:13 68.7 °F /  20.4 °C 60.8 °F /  16 °C 30in /  1016.9hPa Calm     76% 0in /  0.0mm 0 W/m2
03:18 68.5 °F /  20.3 °C 60.6 °F /  15.9 °C 30in /  1016.9hPa Calm     76% 0in /  0.0mm 0 W/m2
03:23 68.5 °F /  20.3 °C 61 °F /  16.1 °C 30in /  1016.9hPa Calm     77% 0in /  0.0mm 0 W/m2
03:28 68.4 °F /  20.2 °C 60.8 °F /  16 °C 30in /  1016.9hPa Calm     77% 0in /  0.0mm 0 W/m2
03:33 68.4 °F /  20.2 °C 60.8 °F /  16 °C 30in /  1016.9hPa Calm     77% 0in /  0.0mm 0 W/m2
03:38 68.2 °F /  20.1 °C 60.6 °F /  15.9 °C 30in /  1016.9hPa Calm     77% 0in /  0.0mm 0 W/m2
03:43 68.2 °F /  20.1 °C 60.6 °F /  15.9 °C 30in /  1016.9hPa Calm     77% 0in /  0.0mm 0 W/m2
03:48 67.8 °F /  19.9 °C 60.6 °F /  15.9 °C 30in /  1016.9hPa Calm     78% 0in /  0.0mm 0 W/m2
03:53 67.8 °F /  19.9 °C 60.6 °F /  15.9 °C 30in /  1016.9hPa Calm     78% 0in /  0.0mm 0 W/m2
03:58 67.6 °F /  19.8 °C 60.6 °F /  15.9 °C 30in /  1016.9hPa Calm     78% 0in /  0.0mm 0 W/m2
04:03 67.6 °F /  19.8 °C 61 °F /  16.1 °C 30in /  1016.9hPa Calm     79% 0in /  0.0mm 0 W/m2
04:08 67.5 °F /  19.7 °C 60.8 °F /  16 °C 30in /  1016.9hPa Calm     79% 0in /  0.0mm 0 W/m2
04:13 67.5 °F /  19.7 °C 60.8 °F /  16 °C 30in /  1016.9hPa Calm     79% 0in /  0.0mm 0 W/m2
04:18 67.5 °F /  19.7 °C 60.8 °F /  16 °C 30in /  1016.9hPa Calm     79% 0in /  0.0mm 0 W/m2
04:23 67.3 °F /  19.6 °C 60.6 °F /  15.9 °C 30in /  1016.9hPa Calm     79% 0in /  0.0mm 0 W/m2
04:28 67.3 °F /  19.6 °C 60.6 °F /  15.9 °C 30in /  1016.9hPa Calm     79% 0in /  0.0mm 0 W/m2
04:33 66.9 °F /  19.4 °C 60.6 °F /  15.9 °C 30in /  1016.9hPa Calm     80% 0in /  0.0mm 0 W/m2
04:38 66.9 °F /  19.4 °C 60.6 °F /  15.9 °C 30in /  1016.9hPa Calm     80% 0in /  0.0mm 0 W/m2
04:43 66.9 °F /  19.4 °C 60.6 °F /  15.9 °C 30in /  1017.3hPa Calm     80% 0in /  0.0mm 0 W/m2
04:48 66.7 °F /  19.3 °C 60.4 °F /  15.8 °C 30in /  1016.9hPa Calm     80% 0in /  0.0mm 0 W/m2
04:53 66.7 °F /  19.3 °C 60.8 °F /  16 °C 30in /  1017.3hPa Calm     81% 0in /  0.0mm 0 W/m2
04:58 66.7 °F /  19.3 °C 60.8 °F /  16 °C 30in /  1017.3hPa Calm     81% 0in /  0.0mm 0 W/m2
05:03 66.6 °F /  19.2 °C 61 °F /  16.1 °C 30in /  1016.9hPa Calm     82% 0in /  0.0mm 0 W/m2
05:08 66.6 °F /  19.2 °C 61 °F /  16.1 °C 30in /  1017.3hPa Calm     82% 0in /  0.0mm 0 W/m2
05:13 66.4 °F /  19.1 °C 60.8 °F /  16 °C 30in /  1017.3hPa Calm     82% 0in /  0.0mm 0 W/m2
05:18 66.2 °F /  19 °C 60.6 °F /  15.9 °C 30in /  1017.3hPa Calm     82% 0in /  0.0mm 0 W/m2
05:23 66.2 °F /  19 °C 60.6 °F /  15.9 °C 30in /  1017.3hPa Calm     82% 0in /  0.0mm 0 W/m2
05:28 66.2 °F /  19 °C 60.6 °F /  15.9 °C 30in /  1017.3hPa Calm     82% 0in /  0.0mm 0 W/m2
05:34 66.4 °F /  19.1 °C 60.8 °F /  16 °C 30in /  1017.3hPa Calm     82% 0in /  0.0mm 0 W/m2
05:39 66.2 °F /  19 °C 60.6 °F /  15.9 °C 30in /  1017.3hPa Calm     82% 0in /  0.0mm 0 W/m2
05:44 66 °F /  18.9 °C 60.4 °F /  15.8 °C 30in /  1017.3hPa Calm     82% 0in /  0.0mm 0 W/m2
05:49 66 °F /  18.9 °C 60.6 °F /  15.9 °C 30in /  1017.3hPa Calm     83% 0in /  0.0mm 0 W/m2
05:54 66 °F /  18.9 °C 60.6 °F /  15.9 °C 30in /  1017.3hPa Calm     83% 0in /  0.0mm 0 W/m2
05:59 65.8 °F /  18.8 °C 60.6 °F /  15.9 °C 30in /  1017.3hPa Calm     83% 0in /  0.0mm 0 W/m2
06:04 65.8 °F /  18.8 °C 60.6 °F /  15.9 °C 30in /  1017.3hPa Calm     83% 0in /  0.0mm 0 W/m2
06:09 66 °F /  18.9 °C 60.6 °F /  15.9 °C 30in /  1017.3hPa Calm     83% 0in /  0.0mm 0 W/m2
06:14 66 °F /  18.9 °C 60.6 °F /  15.9 °C 30.1in /  1017.6hPa Calm     83% 0in /  0.0mm 0 W/m2
06:19 66 °F /  18.9 °C 60.6 °F /  15.9 °C 30.1in /  1017.6hPa Calm     83% 0in /  0.0mm 0 W/m2
06:24 66 °F /  18.9 °C 60.6 °F /  15.9 °C 30.1in /  1017.6hPa Calm   1mph /  1.6km/h 83% 0in /  0.0mm 5 W/m2
06:29 66 °F /  18.9 °C 60.6 °F /  15.9 °C 30.1in /  1017.6hPa Calm     83% 0in /  0.0mm 7 W/m2
06:34 66 °F /  18.9 °C 60.6 °F /  15.9 °C 30.1in /  1017.6hPa Calm     83% 0in /  0.0mm 9 W/m2
06:39 66 °F /  18.9 °C 60.6 °F /  15.9 °C 30.1in /  1017.6hPa Calm     83% 0in /  0.0mm 11 W/m2
06:44 65.8 °F /  18.8 °C 60.6 °F /  15.9 °C 30.1in /  1017.6hPa Calm     83% 0in /  0.0mm 12 W/m2
06:49 65.8 °F /  18.8 °C 60.6 °F /  15.9 °C 30.1in /  1017.6hPa Calm     83% 0in /  0.0mm 14 W/m2
06:54 65.8 °F /  18.8 °C 60.6 °F /  15.9 °C 30.1in /  1018.0hPa Calm     83% 0in /  0.0mm 16 W/m2
06:59 65.8 °F /  18.8 °C 60.6 °F /  15.9 °C 30.1in /  1018.0hPa Calm     83% 0in /  0.0mm 19 W/m2
07:04 65.8 °F /  18.8 °C 60.6 °F /  15.9 °C 30.1in /  1018.0hPa Calm     83% 0in /  0.0mm 21 W/m2
07:09 66 °F /  18.9 °C 60.6 °F /  15.9 °C 30.1in /  1018.0hPa Calm     83% 0in /  0.0mm 23 W/m2
07:14 66 °F /  18.9 °C 60.6 °F /  15.9 °C 30.1in /  1018.0hPa Calm     83% 0in /  0.0mm 25 W/m2
07:19 66.2 °F /  19 °C 60.8 °F /  16 °C 30.1in /  1018.0hPa Calm     83% 0in /  0.0mm 26 W/m2
07:24 66.4 °F /  19.1 °C 61 °F /  16.1 °C 30.1in /  1018.0hPa Calm     83% 0in /  0.0mm 28 W/m2
07:29 66.7 °F /  19.3 °C 61.3 °F /  16.3 °C 30.1in /  1018.0hPa Calm     83% 0in /  0.0mm 30 W/m2
07:34 66.9 °F /  19.4 °C 61.2 °F /  16.2 °C 30.1in /  1018.0hPa Calm     82% 0in /  0.0mm 32 W/m2
07:39 67.3 °F /  19.6 °C 61.5 °F /  16.4 °C 30.1in /  1018.0hPa Calm     82% 0in /  0.0mm 33 W/m2
07:44 67.5 °F /  19.7 °C 61.3 °F /  16.3 °C 30.1in /  1018.3hPa Calm     81% 0in /  0.0mm 33 W/m2
07:49 67.6 °F /  19.8 °C 61.5 °F /  16.4 °C 30.1in /  1018.3hPa Calm     81% 0in /  0.0mm 35 W/m2
07:54 68 °F /  20 °C 61.9 °F /  16.6 °C 30.1in /  1018.3hPa Calm     81% 0in /  0.0mm 37 W/m2
07:59 68.4 °F /  20.2 °C 61.9 °F /  16.6 °C 30.1in /  1018.3hPa Calm     80% 0in /  0.0mm 39 W/m2
08:04 68.7 °F /  20.4 °C 62.6 °F /  17 °C 30.1in /  1018.3hPa Calm     81% 0in /  0.0mm 116 W/m2
08:09 69.3 °F /  20.7 °C 62.4 °F /  16.9 °C 30.1in /  1018.3hPa Calm     79% 0in /  0.0mm 77 W/m2
08:15 70 °F /  21.1 °C 62.4 °F /  16.9 °C 30.1in /  1018.3hPa Calm     77% 0in /  0.0mm 44 W/m2
08:20 70.9 °F /  21.6 °C 63 °F /  17.2 °C 30.1in /  1018.3hPa Calm     76% 0in /  0.0mm 46 W/m2
08:25 71.8 °F /  22.1 °C 62.2 °F /  16.8 °C 30.1in /  1018.3hPa Calm   1mph /  1.6km/h 72% 0in /  0.0mm 47 W/m2
08:30 72.9 °F /  22.7 °C 63 °F /  17.2 °C 30.1in /  1018.3hPa SE 2mph /  3.2km/h 2mph /  3.2km/h 71% 0in /  0.0mm 47 W/m2
08:35 73.9 °F /  23.3 °C 62.8 °F /  17.1 °C 30.1in /  1018.3hPa Calm   1mph /  1.6km/h 68% 0in /  0.0mm 47 W/m2
08:40 75 °F /  23.9 °C 63.3 °F /  17.4 °C 30.1in /  1018.3hPa East 2mph /  3.2km/h 2mph /  3.2km/h 67% 0in /  0.0mm 49 W/m2
08:45 75.7 °F /  24.3 °C 63.5 °F /  17.5 °C 30.1in /  1018.3hPa ENE 2mph /  3.2km/h 2mph /  3.2km/h 66% 0in /  0.0mm 49 W/m2
08:50 76.6 °F /  24.8 °C 63.5 °F /  17.5 °C 30.1in /  1018.3hPa Calm   2mph /  3.2km/h 64% 0in /  0.0mm 51 W/m2
08:55 77.2 °F /  25.1 °C 63.1 °F /  17.3 °C 30.1in /  1018.3hPa Calm   1mph /  1.6km/h 62% 0in /  0.0mm 54 W/m2
09:00 77.5 °F /  25.3 °C 63.5 °F /  17.5 °C 30.1in /  1018.6hPa Calm   2mph /  3.2km/h 62% 0in /  0.0mm 132 W/m2
09:05 78.1 °F /  25.6 °C 63.5 °F /  17.5 °C 30.1in /  1018.6hPa Calm   1mph /  1.6km/h 61% 0in /  0.0mm 309 W/m2
09:10 78.1 °F /  25.6 °C 63.1 °F /  17.3 °C 30.1in /  1018.6hPa East 0.9mph /  1.4km/h 2mph /  3.2km/h 60% 0in /  0.0mm 339 W/m2
09:15 78.3 °F /  25.7 °C 63.3 °F /  17.4 °C 30.1in /  1018.6hPa ENE 0.9mph /  1.4km/h 4mph /  6.4km/h 60% 0in /  0.0mm 355 W/m2
09:20 78.3 °F /  25.7 °C 63.3 °F /  17.4 °C 30.1in /  1018.3hPa Calm   1mph /  1.6km/h 60% 0in /  0.0mm 369 W/m2
09:25 78.4 °F /  25.8 °C 63.3 °F /  17.4 °C 30.1in /  1018.3hPa NNE 0.9mph /  1.4km/h 3mph /  4.8km/h 60% 0in /  0.0mm 387 W/m2
09:30 78.4 °F /  25.8 °C 63.3 °F /  17.4 °C 30.1in /  1018.3hPa Calm   2mph /  3.2km/h 60% 0in /  0.0mm 399 W/m2
09:35 78.6 °F /  25.9 °C 63.5 °F /  17.5 °C 30.1in /  1018.3hPa NE 2mph /  3.2km/h 3mph /  4.8km/h 60% 0in /  0.0mm 411 W/m2
09:40 78.3 °F /  25.7 °C 63.3 °F /  17.4 °C 30.1in /  1018.3hPa Calm   1mph /  1.6km/h 60% 0in /  0.0mm 424 W/m2
09:45 78.4 °F /  25.8 °C 63.3 °F /  17.4 °C 30.1in /  1018.3hPa ENE 0.9mph /  1.4km/h 3mph /  4.8km/h 60% 0in /  0.0mm 404 W/m2
09:50 79.2 °F /  26.2 °C 64 °F /  17.8 °C 30.1in /  1018.3hPa ESE 2mph /  3.2km/h 3mph /  4.8km/h 60% 0in /  0.0mm 62 W/m2
09:55 79.5 °F /  26.4 °C 63.9 °F /  17.7 °C 30.1in /  1018.3hPa East 2mph /  3.2km/h 3mph /  4.8km/h 59% 0in /  0.0mm 417 W/m2
10:00 80.1 °F /  26.7 °C 64.9 °F /  18.3 °C 30.1in /  1018.3hPa East 0.9mph /  1.4km/h 3mph /  4.8km/h 60% 0in /  0.0mm 473 W/m2
10:05 80.8 °F /  27.1 °C 64.6 °F /  18.1 °C 30.1in /  1018.3hPa NE 2mph /  3.2km/h 3mph /  4.8km/h 58% 0in /  0.0mm 492 W/m2
10:10 80.8 °F /  27.1 °C 64 °F /  17.8 °C 30.1in /  1018.3hPa NE 2.9mph /  4.7km/h 4mph /  6.4km/h 57% 0in /  0.0mm 503 W/m2
10:15 81 °F /  27.2 °C 64.8 °F /  18.2 °C 30.1in /  1018.3hPa NE 2mph /  3.2km/h 3mph /  4.8km/h 58% 0in /  0.0mm 517 W/m2
10:20 81 °F /  27.2 °C 64.2 °F /  17.9 °C 30.1in /  1018.0hPa NE 0.9mph /  1.4km/h 3mph /  4.8km/h 57% 0in /  0.0mm 527 W/m2
10:25 81.5 °F /  27.5 °C 64.8 °F /  18.2 °C 30.1in /  1018.3hPa NE 0.9mph /  1.4km/h 4mph /  6.4km/h 57% 0in /  0.0mm 538 W/m2
10:30 82.2 °F /  27.9 °C 64.9 °F /  18.3 °C 30.1in /  1018.3hPa East 0.9mph /  1.4km/h 3mph /  4.8km/h 56% 0in /  0.0mm 554 W/m2
10:35 82.8 °F /  28.2 °C 64.9 °F /  18.3 °C 30.1in /  1018.0hPa ESE 0.9mph /  1.4km/h 4mph /  6.4km/h 55% 0in /  0.0mm 564 W/m2
10:41 82.9 °F /  28.3 °C 64.6 °F /  18.1 °C 30.1in /  1018.0hPa ENE 0.9mph /  1.4km/h 4mph /  6.4km/h 54% 0in /  0.0mm 577 W/m2
10:46 83.1 °F /  28.4 °C 65.3 °F /  18.5 °C 30.1in /  1018.0hPa Calm   3mph /  4.8km/h 55% 0in /  0.0mm 587 W/m2
10:51 83.5 °F /  28.6 °C 65.7 °F /  18.7 °C 30.1in /  1018.0hPa East 2mph /  3.2km/h 3mph /  4.8km/h 55% 0in /  0.0mm 598 W/m2
10:56 83.8 °F /  28.8 °C 65.5 °F /  18.6 °C 30.1in /  1018.0hPa North 0.9mph /  1.4km/h 3mph /  4.8km/h 54% 0in /  0.0mm 610 W/m2
11:01 84 °F /  28.9 °C 65.1 °F /  18.4 °C 30.1in /  1018.0hPa Calm   3mph /  4.8km/h 53% 0in /  0.0mm 619 W/m2
11:06 84.2 °F /  29 °C 64.6 °F /  18.1 °C 30.1in /  1018.0hPa ENE 0.9mph /  1.4km/h 3mph /  4.8km/h 52% 0in /  0.0mm 631 W/m2
11:11 84.6 °F /  29.2 °C 64.9 °F /  18.3 °C 30.1in /  1018.0hPa ENE 2mph /  3.2km/h 3mph /  4.8km/h 52% 0in /  0.0mm 643 W/m2
11:16 85.1 °F /  29.5 °C 64.9 °F /  18.3 °C 30.1in /  1018.0hPa ENE 2.9mph /  4.7km/h 4mph /  6.4km/h 51% 0in /  0.0mm 654 W/m2
11:21 85.3 °F /  29.6 °C 65.1 °F /  18.4 °C 30.1in /  1018.0hPa NNW 0.9mph /  1.4km/h 2mph /  3.2km/h 51% 0in /  0.0mm 663 W/m2
11:26 85.3 °F /  29.6 °C 65.1 °F /  18.4 °C 30.1in /  1018.0hPa South 4mph /  6.4km/h 4mph /  6.4km/h 51% 0in /  0.0mm 673 W/m2
11:31 85.6 °F /  29.8 °C 66 °F /  18.9 °C 30.1in /  1018.0hPa ESE 2mph /  3.2km/h 2mph /  3.2km/h 52% 0in /  0.0mm 680 W/m2
11:36 86.2 °F /  30.1 °C 65.8 °F /  18.8 °C 30.1in /  1017.6hPa WSW 0.9mph /  1.4km/h 2mph /  3.2km/h 51% 0in /  0.0mm 691 W/m2
11:41 86.5 °F /  30.3 °C 65.7 °F /  18.7 °C 30.1in /  1017.6hPa Calm   2mph /  3.2km/h 50% 0in /  0.0mm 698 W/m2
11:46 86.9 °F /  30.5 °C 65.5 °F /  18.6 °C 30.1in /  1017.6hPa Calm   2mph /  3.2km/h 49% 0in /  0.0mm 705 W/m2
11:51 87.3 °F /  30.7 °C 65.1 °F /  18.4 °C 30.1in /  1017.6hPa NE 0.9mph /  1.4km/h 5mph /  8km/h 48% 0in /  0.0mm 714 W/m2
11:56 87.6 °F /  30.9 °C 66 °F /  18.9 °C 30.1in /  1017.6hPa Calm   1mph /  1.6km/h 49% 0in /  0.0mm 722 W/m2
12:01 88.2 °F /  31.2 °C 64.8 °F /  18.2 °C 30.1in /  1017.6hPa NNE 2mph /  3.2km/h 5mph /  8km/h 46% 0in /  0.0mm 731 W/m2
12:06 88.5 °F /  31.4 °C 65.7 °F /  18.7 °C 30.1in /  1017.6hPa Calm   3mph /  4.8km/h 47% 0in /  0.0mm 738 W/m2
12:11 89.1 °F /  31.7 °C 65.7 °F /  18.7 °C 30in /  1017.3hPa Calm   5mph /  8km/h 46% 0in /  0.0mm 747 W/m2
12:16 89.4 °F /  31.9 °C 65.8 °F /  18.8 °C 30.1in /  1017.6hPa East 6.9mph /  11.1km/h 8mph /  12.9km/h 46% 0in /  0.0mm 754 W/m2
12:21 90 °F /  32.2 °C 65.8 °F /  18.8 °C 30.1in /  1017.6hPa NE 0.9mph /  1.4km/h 3mph /  4.8km/h 45% 0in /  0.0mm 758 W/m2
12:26 90.3 °F /  32.4 °C 66 °F /  18.9 °C 30in /  1017.3hPa Calm   1mph /  1.6km/h 45% 0in /  0.0mm 763 W/m2
12:31 90.7 °F /  32.6 °C 65.8 °F /  18.8 °C 30in /  1017.3hPa East 2mph /  3.2km/h 3mph /  4.8km/h 44% 0in /  0.0mm 770 W/m2
12:36 91.2 °F /  32.9 °C 66.2 °F /  19 °C 30in /  1017.3hPa ENE 2mph /  3.2km/h 4mph /  6.4km/h 44% 0in /  0.0mm 777 W/m2
12:41 91.6 °F /  33.1 °C 65.8 °F /  18.8 °C 30in /  1017.3hPa East 4mph /  6.4km/h 6mph /  9.7km/h 43% 0in /  0.0mm 786 W/m2
12:46 91.8 °F /  33.2 °C 65.5 °F /  18.6 °C 30in /  1017.3hPa East 2mph /  3.2km/h 2mph /  3.2km/h 42% 0in /  0.0mm 784 W/m2
12:51 91.9 °F /  33.3 °C 65.5 °F /  18.6 °C 30in /  1017.3hPa NE 2mph /  3.2km/h 6mph /  9.7km/h 42% 0in /  0.0mm 791 W/m2
12:56 92.1 °F /  33.4 °C 65.7 °F /  18.7 °C 30in /  1017.3hPa North 2mph /  3.2km/h 3mph /  4.8km/h 42% 0in /  0.0mm 795 W/m2
13:01 92.5 °F /  33.6 °C 66 °F /  18.9 °C 30in /  1017.3hPa NNE 2mph /  3.2km/h 4mph /  6.4km/h 42% 0in /  0.0mm 798 W/m2
13:06 92.5 °F /  33.6 °C 65.3 °F /  18.5 °C 30in /  1017.3hPa East 2mph /  3.2km/h 3mph /  4.8km/h 41% 0in /  0.0mm 803 W/m2
13:11 92.3 °F /  33.5 °C 65.8 °F /  18.8 °C 30in /  1017.3hPa WSW 2mph /  3.2km/h 6mph /  9.7km/h 42% 0in /  0.0mm 807 W/m2
13:16 92.5 °F /  33.6 °C 65.3 °F /  18.5 °C 30in /  1017.3hPa East 4mph /  6.4km/h 4mph /  6.4km/h 41% 0in /  0.0mm 807 W/m2
13:21 92.8 °F /  33.8 °C 65.7 °F /  18.7 °C 30in /  1016.9hPa ENE 2.9mph /  4.7km/h 3mph /  4.8km/h 41% 0in /  0.0mm 809 W/m2
13:26 93.4 °F /  34.1 °C 66.2 °F /  19 °C 30in /  1016.9hPa SW 0.9mph /  1.4km/h 2mph /  3.2km/h 41% 0in /  0.0mm 816 W/m2
13:31 93.4 °F /  34.1 °C 65.5 °F /  18.6 °C 30in /  1016.9hPa NNE 0.9mph /  1.4km/h 6mph /  9.7km/h 40% 0in /  0.0mm 816 W/m2
13:36 93.6 °F /  34.2 °C 67.1 °F /  19.5 °C 30in /  1016.9hPa Calm   3mph /  4.8km/h 42% 0in /  0.0mm 814 W/m2
13:41 93.7 °F /  34.3 °C 65.1 °F /  18.4 °C 30in /  1016.9hPa Calm   3mph /  4.8km/h 39% 0in /  0.0mm 816 W/m2
13:47 93.9 °F /  34.4 °C 65.8 °F /  18.8 °C 30in /  1016.9hPa North 2.9mph /  4.7km/h 3mph /  4.8km/h 40% 0in /  0.0mm 809 W/m2
13:52 93.9 °F /  34.4 °C 65.1 °F /  18.4 °C 30in /  1016.9hPa WSW 0.9mph /  1.4km/h 2mph /  3.2km/h 39% 0in /  0.0mm 819 W/m2
13:57 94.1 °F /  34.5 °C 65.3 °F /  18.5 °C 30in /  1016.9hPa East 2.9mph /  4.7km/h 6mph /  9.7km/h 39% 0in /  0.0mm 838 W/m2
14:02 94.3 °F /  34.6 °C 64.8 °F /  18.2 °C 30in /  1016.9hPa NNE 0.9mph /  1.4km/h 2mph /  3.2km/h 38% 0in /  0.0mm 821 W/m2
14:07 94.3 °F /  34.6 °C 64.8 °F /  18.2 °C 30in /  1016.9hPa ESE 2mph /  3.2km/h 2mph /  3.2km/h 38% 0in /  0.0mm 810 W/m2
14:12 94.5 °F /  34.7 °C 65.7 °F /  18.7 °C 30in /  1016.9hPa ESE 2.9mph /  4.7km/h 7mph /  11.3km/h 39% 0in /  0.0mm 816 W/m2
14:17 94.5 °F /  34.7 °C 64.9 °F /  18.3 °C 30in /  1016.9hPa ESE 2mph /  3.2km/h 4mph /  6.4km/h 38% 0in /  0.0mm 812 W/m2
14:22 94.5 °F /  34.7 °C 64.2 °F /  17.9 °C 30in /  1016.9hPa West 2mph /  3.2km/h 3mph /  4.8km/h 37% 0in /  0.0mm 807 W/m2
14:27 94.3 °F /  34.6 °C 63.1 °F /  17.3 °C 30in /  1016.9hPa SSW 2mph /  3.2km/h 3mph /  4.8km/h 36% 0in /  0.0mm 842 W/m2
14:32 94.3 °F /  34.6 °C 63.1 °F /  17.3 °C 30in /  1016.6hPa Calm   2mph /  3.2km/h 36% 0in /  0.0mm 824 W/m2
14:37 94.5 °F /  34.7 °C 63.3 °F /  17.4 °C 30in /  1016.6hPa ESE 2mph /  3.2km/h 3mph /  4.8km/h 36% 0in /  0.0mm 823 W/m2
14:42 95 °F /  35 °C 63.1 °F /  17.3 °C 30in /  1016.6hPa ESE 0.9mph /  1.4km/h 7mph /  11.3km/h 35% 0in /  0.0mm 812 W/m2
14:47 95.5 °F /  35.3 °C 63.5 °F /  17.5 °C 30in /  1016.6hPa ESE 2.9mph /  4.7km/h 4mph /  6.4km/h 35% 0in /  0.0mm 802 W/m2
14:52 95.5 °F /  35.3 °C 63.5 °F /  17.5 °C 30in /  1016.6hPa North 2.9mph /  4.7km/h 6mph /  9.7km/h 35% 0in /  0.0mm 800 W/m2
14:57 95.4 °F /  35.2 °C 63.3 °F /  17.4 °C 30in /  1016.6hPa NE 0.9mph /  1.4km/h 6mph /  9.7km/h 35% 0in /  0.0mm 798 W/m2
15:03 95.4 °F /  35.2 °C 62.6 °F /  17 °C 30in /  1016.6hPa East 0.9mph /  1.4km/h 7mph /  11.3km/h 34% 0in /  0.0mm 812 W/m2
15:08 95.4 °F /  35.2 °C 61.7 °F /  16.5 °C 30in /  1016.6hPa NNW 0.9mph /  1.4km/h 3mph /  4.8km/h 33% 0in /  0.0mm 784 W/m2
15:13 95.5 °F /  35.3 °C 61.9 °F /  16.6 °C 30in /  1016.6hPa NE 4.9mph /  7.9km/h 5mph /  8km/h 33% 0in /  0.0mm 775 W/m2
15:18 95.7 °F /  35.4 °C 62.1 °F /  16.7 °C 30in /  1016.3hPa Calm   3mph /  4.8km/h 33% 0in /  0.0mm 768 W/m2
15:23 96.3 °F /  35.7 °C 61.5 °F /  16.4 °C 30in /  1016.3hPa East 0.9mph /  1.4km/h 3mph /  4.8km/h 32% 0in /  0.0mm 770 W/m2
15:28 96.6 °F /  35.9 °C 64.4 °F /  18 °C 30in /  1016.3hPa West 2.9mph /  4.7km/h 4mph /  6.4km/h 35% 0in /  0.0mm 768 W/m2
15:33 96.4 °F /  35.8 °C 61.7 °F /  16.5 °C 30in /  1016.3hPa Calm   2mph /  3.2km/h 32% 0in /  0.0mm 766 W/m2
15:38 96.3 °F /  35.7 °C 62.4 °F /  16.9 °C 30in /  1016.3hPa SE 0.9mph /  1.4km/h 3mph /  4.8km/h 33% 0in /  0.0mm 708 W/m2
15:43 96.4 °F /  35.8 °C 61.7 °F /  16.5 °C 30in /  1016.3hPa SE 2.9mph /  4.7km/h 6mph /  9.7km/h 32% 0in /  0.0mm 745 W/m2
15:48 96.4 °F /  35.8 °C 61.7 °F /  16.5 °C 30in /  1016.3hPa NE 0.9mph /  1.4km/h 5mph /  8km/h 32% 0in /  0.0mm 737 W/m2
15:53 96.4 °F /  35.8 °C 61.7 °F /  16.5 °C 30in /  1016.3hPa Calm   2mph /  3.2km/h 32% 0in /  0.0mm 731 W/m2
15:58 96.6 °F /  35.9 °C 62.8 °F /  17.1 °C 30in /  1016.3hPa SW 0.9mph /  1.4km/h 3mph /  4.8km/h 33% 0in /  0.0mm 719 W/m2
16:03 97.2 °F /  36.2 °C 62.4 °F /  16.9 °C 30in /  1016.3hPa ENE 2mph /  3.2km/h 3mph /  4.8km/h 32% 0in /  0.0mm 717 W/m2
16:08 97.3 °F /  36.3 °C 62.6 °F /  17 °C 30in /  1016.3hPa East 0.9mph /  1.4km/h 2mph /  3.2km/h 32% 0in /  0.0mm 707 W/m2
16:13 97.2 °F /  36.2 °C 61.5 °F /  16.4 °C 30in /  1016.3hPa West 4mph /  6.4km/h 6mph /  9.7km/h 31% 0in /  0.0mm 703 W/m2
16:18 96.3 °F /  35.7 °C 61.5 °F /  16.4 °C 30in /  1015.9hPa WNW 2mph /  3.2km/h 3mph /  4.8km/h 32% 0in /  0.0mm 689 W/m2
16:23 96.3 °F /  35.7 °C 61.5 °F /  16.4 °C 30in /  1015.9hPa ESE 2mph /  3.2km/h 2mph /  3.2km/h 32% 0in /  0.0mm 684 W/m2
16:28 97 °F /  36.1 °C 62.2 °F /  16.8 °C 30in /  1015.9hPa Calm   3mph /  4.8km/h 32% 0in /  0.0mm 671 W/m2
16:33 97.3 °F /  36.3 °C 63.5 °F /  17.5 °C 30in /  1015.9hPa East 2.9mph /  4.7km/h 3mph /  4.8km/h 33% 0in /  0.0mm 666 W/m2
16:38 97.5 °F /  36.4 °C 61.9 °F /  16.6 °C 30in /  1015.9hPa ENE 4mph /  6.4km/h 4mph /  6.4km/h 31% 0in /  0.0mm 153 W/m2
16:44 97.3 °F /  36.3 °C 62.6 °F /  17 °C 30in /  1015.9hPa NNW 0.9mph /  1.4km/h 2mph /  3.2km/h 32% 0in /  0.0mm 647 W/m2
16:49 97.3 °F /  36.3 °C 62.6 °F /  17 °C 30in /  1015.9hPa ENE 4mph /  6.4km/h 5mph /  8km/h 32% 0in /  0.0mm 652 W/m2
16:54 97.5 °F /  36.4 °C 61.9 °F /  16.6 °C 30in /  1015.9hPa WNW 2.9mph /  4.7km/h 4mph /  6.4km/h 31% 0in /  0.0mm 631 W/m2
16:59 97.7 °F /  36.5 °C 62.8 °F /  17.1 °C 30in /  1015.9hPa WSW 0.9mph /  1.4km/h 2mph /  3.2km/h 32% 0in /  0.0mm 626 W/m2
17:04 98.1 °F /  36.7 °C 62.2 °F /  16.8 °C 30in /  1015.9hPa Calm   2mph /  3.2km/h 31% 0in /  0.0mm 613 W/m2
17:09 97.9 °F /  36.6 °C 62.1 °F /  16.7 °C 30in /  1015.9hPa NE 0.9mph /  1.4km/h 2mph /  3.2km/h 31% 0in /  0.0mm 585 W/m2
17:14 98.1 °F /  36.7 °C 62.2 °F /  16.8 °C 30in /  1015.6hPa East 0.9mph /  1.4km/h 3mph /  4.8km/h 31% 0in /  0.0mm 568 W/m2
17:19 97.9 °F /  36.6 °C 60.3 °F /  15.7 °C 30in /  1015.6hPa Calm   2mph /  3.2km/h 29% 0in /  0.0mm 564 W/m2
17:24 98.1 °F /  36.7 °C 61.3 °F /  16.3 °C 30in /  1015.6hPa ESE 0.9mph /  1.4km/h 3mph /  4.8km/h 30% 0in /  0.0mm 554 W/m2
17:29 97.9 °F /  36.6 °C 61.2 °F /  16.2 °C 30in /  1015.6hPa NW 0.9mph /  1.4km/h 2mph /  3.2km/h 30% 0in /  0.0mm 529 W/m2
17:35 97.9 °F /  36.6 °C 62.1 °F /  16.7 °C 30in /  1015.6hPa NNW 2mph /  3.2km/h 4mph /  6.4km/h 31% 0in /  0.0mm 529 W/m2
17:40 97.9 °F /  36.6 °C 63 °F /  17.2 °C 30in /  1015.2hPa WNW 4mph /  6.4km/h 5mph /  8km/h 32% 0in /  0.0mm 512 W/m2
17:45 97.2 °F /  36.2 °C 61.5 °F /  16.4 °C 30in /  1015.2hPa WSW 0.9mph /  1.4km/h 4mph /  6.4km/h 31% 0in /  0.0mm 178 W/m2
17:50 97 °F /  36.1 °C 60.4 °F /  15.8 °C 30in /  1015.2hPa West 2.9mph /  4.7km/h 4mph /  6.4km/h 30% 0in /  0.0mm 503 W/m2
17:55 96.8 °F /  36 °C 61.2 °F /  16.2 °C 30in /  1015.2hPa Calm   1mph /  1.6km/h 31% 0in /  0.0mm 489 W/m2
18:00 97.2 °F /  36.2 °C 61.5 °F /  16.4 °C 30in /  1015.2hPa WNW 2.9mph /  4.7km/h 3mph /  4.8km/h 31% 0in /  0.0mm 466 W/m2
18:05 97.3 °F /  36.3 °C 61.7 °F /  16.5 °C 30in /  1015.2hPa Calm   1mph /  1.6km/h 31% 0in /  0.0mm 454 W/m2
18:10 97.7 °F /  36.5 °C 61.9 °F /  16.6 °C 30in /  1015.2hPa ENE 2mph /  3.2km/h 2mph /  3.2km/h 31% 0in /  0.0mm 459 W/m2
18:15 98.1 °F /  36.7 °C 62.2 °F /  16.8 °C 30in /  1015.2hPa NNE 0.9mph /  1.4km/h 9mph /  14.5km/h 31% 0in /  0.0mm 450 W/m2
18:20 97.9 °F /  36.6 °C 62.1 °F /  16.7 °C 30in /  1015.2hPa Calm   2mph /  3.2km/h 31% 0in /  0.0mm 436 W/m2
18:25 98.1 °F /  36.7 °C 62.2 °F /  16.8 °C 30in /  1015.2hPa NE 2mph /  3.2km/h 7mph /  11.3km/h 31% 0in /  0.0mm 413 W/m2
18:30 98.1 °F /  36.7 °C 63.1 °F /  17.3 °C 30in /  1015.2hPa ENE 2mph /  3.2km/h 4mph /  6.4km/h 32% 0in /  0.0mm 392 W/m2
18:35 97.9 °F /  36.6 °C 63 °F /  17.2 °C 30in /  1015.2hPa NE 2.9mph /  4.7km/h 9mph /  14.5km/h 32% 0in /  0.0mm 378 W/m2
18:40 97.5 °F /  36.4 °C 61.9 °F /  16.6 °C 30in /  1015.2hPa ESE 0.9mph /  1.4km/h 4mph /  6.4km/h 31% 0in /  0.0mm 353 W/m2
18:45 97.5 °F /  36.4 °C 62.8 °F /  17.1 °C 30in /  1015.2hPa East 2mph /  3.2km/h 4mph /  6.4km/h 32% 0in /  0.0mm 322 W/m2
18:50 97.3 °F /  36.3 °C 63.5 °F /  17.5 °C 30in /  1015.2hPa Calm   3mph /  4.8km/h 33% 0in /  0.0mm 297 W/m2
18:55 97.2 °F /  36.2 °C 62.4 °F /  16.9 °C 30in /  1015.2hPa East 2mph /  3.2km/h 4mph /  6.4km/h 32% 0in /  0.0mm 269 W/m2
19:00 97.2 °F /  36.2 °C 62.4 °F /  16.9 °C 30in /  1015.2hPa Calm   1mph /  1.6km/h 32% 0in /  0.0mm 244 W/m2
19:05 97.2 °F /  36.2 °C 62.4 °F /  16.9 °C 30in /  1015.2hPa ENE 2mph /  3.2km/h 4mph /  6.4km/h 32% 0in /  0.0mm 223 W/m2
19:10 96.6 °F /  35.9 °C 61.9 °F /  16.6 °C 30in /  1014.9hPa East 0.9mph /  1.4km/h 3mph /  4.8km/h 32% 0in /  0.0mm 199 W/m2
19:15 96.4 °F /  35.8 °C 62.6 °F /  17 °C 30in /  1015.2hPa SSE 2mph /  3.2km/h 3mph /  4.8km/h 33% 0in /  0.0mm 183 W/m2
19:20 96.3 °F /  35.7 °C 64.2 °F /  17.9 °C 30in /  1015.2hPa Calm   1mph /  1.6km/h 35% 0in /  0.0mm 163 W/m2
19:25 96.1 °F /  35.6 °C 64.8 °F /  18.2 °C 30in /  1015.2hPa Calm   3mph /  4.8km/h 36% 0in /  0.0mm 148 W/m2
19:30 95.7 °F /  35.4 °C 65.3 °F /  18.5 °C 30in /  1014.9hPa Calm   1mph /  1.6km/h 37% 0in /  0.0mm 135 W/m2
19:35 95 °F /  35 °C 64.6 °F /  18.1 °C 30in /  1014.9hPa Calm     37% 0in /  0.0mm 132 W/m2
19:40 94.5 °F /  34.7 °C 64.9 °F /  18.3 °C 30in /  1014.9hPa Calm     38% 0in /  0.0mm 132 W/m2
19:45 93.9 °F /  34.4 °C 65.1 °F /  18.4 °C 30in /  1014.9hPa Calm   1mph /  1.6km/h 39% 0in /  0.0mm 128 W/m2
19:50 93.6 °F /  34.2 °C 64.2 °F /  17.9 °C 30in /  1014.9hPa ESE 0.9mph /  1.4km/h 1mph /  1.6km/h 38% 0in /  0.0mm 120 W/m2
19:55 92.8 °F /  33.8 °C 64.2 °F /  17.9 °C 30in /  1014.9hPa ESE 0.9mph /  1.4km/h 2mph /  3.2km/h 39% 0in /  0.0mm 104 W/m2
20:00 92.3 °F /  33.5 °C 63.7 °F /  17.6 °C 30in /  1014.9hPa Calm   1mph /  1.6km/h 39% 0in /  0.0mm 90 W/m2
20:05 91.8 °F /  33.2 °C 64 °F /  17.8 °C 30in /  1014.9hPa ESE 0.9mph /  1.4km/h 2mph /  3.2km/h 40% 0in /  0.0mm 77 W/m2
20:10 91.2 °F /  32.9 °C 64.2 °F /  17.9 °C 30in /  1014.9hPa ESE 0.9mph /  1.4km/h 2mph /  3.2km/h 41% 0in /  0.0mm 58 W/m2
20:15 90.7 °F /  32.6 °C 63.7 °F /  17.6 °C 30in /  1014.9hPa Calm   1mph /  1.6km/h 41% 0in /  0.0mm 46 W/m2
20:21 90.1 °F /  32.3 °C 63.9 °F /  17.7 °C 30in /  1014.9hPa ESE 0.9mph /  1.4km/h 1mph /  1.6km/h 42% 0in /  0.0mm 28 W/m2
20:26 89.4 °F /  31.9 °C 64 °F /  17.8 °C 30in /  1014.9hPa ESE 0.9mph /  1.4km/h 2mph /  3.2km/h 43% 0in /  0.0mm 25 W/m2
20:31 89.1 °F /  31.7 °C 64.2 °F /  17.9 °C 30in /  1014.9hPa ESE 0.9mph /  1.4km/h 1mph /  1.6km/h 44% 0in /  0.0mm 23 W/m2
20:36 88.5 °F /  31.4 °C 63.9 °F /  17.7 °C 30in /  1014.9hPa ESE 0.9mph /  1.4km/h 1mph /  1.6km/h 44% 0in /  0.0mm 19 W/m2
20:41 88 °F /  31.1 °C 63.3 °F /  17.4 °C 30in /  1014.9hPa ESE 0.9mph /  1.4km/h 1mph /  1.6km/h 44% 0in /  0.0mm 14 W/m2
20:46 87.4 °F /  30.8 °C 63.5 °F /  17.5 °C 30in /  1014.9hPa ESE 0.9mph /  1.4km/h 2mph /  3.2km/h 45% 0in /  0.0mm 12 W/m2
20:51 86.9 °F /  30.5 °C 63 °F /  17.2 °C 30in /  1014.9hPa Calm   1mph /  1.6km/h 45% 0in /  0.0mm 9 W/m2
20:56 86.4 °F /  30.2 °C 63.1 °F /  17.3 °C 30in /  1015.2hPa ESE 0.9mph /  1.4km/h 2mph /  3.2km/h 46% 0in /  0.0mm 5 W/m2
21:01 85.8 °F /  29.9 °C 62.6 °F /  17 °C 30in /  1015.2hPa Calm     46% 0in /  0.0mm 0 W/m2
21:06 85.5 °F /  29.7 °C 63 °F /  17.2 °C 30in /  1015.2hPa Calm   1mph /  1.6km/h 47% 0in /  0.0mm 0 W/m2
21:11 84.9 °F /  29.4 °C 62.4 °F /  16.9 °C 30in /  1015.2hPa Calm   1mph /  1.6km/h 47% 0in /  0.0mm 0 W/m2
21:16 84.4 °F /  29.1 °C 62.6 °F /  17 °C 30in /  1015.2hPa Calm   1mph /  1.6km/h 48% 0in /  0.0mm 0 W/m2
21:21 83.8 °F /  28.8 °C 62.6 °F /  17 °C 30in /  1015.2hPa Calm     49% 0in /  0.0mm 0 W/m2
21:26 83.5 °F /  28.6 °C 63 °F /  17.2 °C 30in /  1015.2hPa Calm     50% 0in /  0.0mm 0 W/m2
21:31 82.9 °F /  28.3 °C 62.4 °F /  16.9 °C 30in /  1015.2hPa Calm     50% 0in /  0.0mm 0 W/m2
21:36 82.6 °F /  28.1 °C 62.1 °F /  16.7 °C 30in /  1015.6hPa Calm     50% 0in /  0.0mm 0 W/m2
21:41 82 °F /  27.8 °C 61.5 °F /  16.4 °C 30in /  1015.6hPa Calm     50% 0in /  0.0mm 0 W/m2
21:46 81.7 °F /  27.6 °C 61.2 °F /  16.2 °C 30in /  1015.6hPa Calm     50% 0in /  0.0mm 0 W/m2
21:51 81.3 °F /  27.4 °C 61.5 °F /  16.4 °C 30in /  1015.6hPa Calm     51% 0in /  0.0mm 0 W/m2
21:56 81 °F /  27.2 °C 61.7 °F /  16.5 °C 30in /  1015.6hPa Calm     52% 0in /  0.0mm 0 W/m2
22:01 80.8 °F /  27.1 °C 61.5 °F /  16.4 °C 30in /  1015.6hPa Calm     52% 0in /  0.0mm 0 W/m2
22:06 80.4 °F /  26.9 °C 61.2 °F /  16.2 °C 30in /  1015.6hPa Calm     52% 0in /  0.0mm 0 W/m2
22:11 80.2 °F /  26.8 °C 61 °F /  16.1 °C 30in /  1015.6hPa Calm   2mph /  3.2km/h 52% 0in /  0.0mm 0 W/m2
22:16 79.9 °F /  26.6 °C 61.2 °F /  16.2 °C 30in /  1015.6hPa Calm     53% 0in /  0.0mm 0 W/m2
22:21 79.9 °F /  26.6 °C 61.2 °F /  16.2 °C 30in /  1015.6hPa SE 0.9mph /  1.4km/h 2mph /  3.2km/h 53% 0in /  0.0mm 0 W/m2
22:26 79.5 °F /  26.4 °C 60.8 °F /  16 °C 30in /  1015.6hPa Calm   1mph /  1.6km/h 53% 0in /  0.0mm 0 W/m2
22:31 79.3 °F /  26.3 °C 61.2 °F /  16.2 °C 30in /  1015.6hPa Calm   1mph /  1.6km/h 54% 0in /  0.0mm 0 W/m2
22:36 79.3 °F /  26.3 °C 61.2 °F /  16.2 °C 30in /  1015.6hPa Calm     54% 0in /  0.0mm 0 W/m2
22:41 79.2 °F /  26.2 °C 61.5 °F /  16.4 °C 30in /  1015.6hPa Calm   1mph /  1.6km/h 55% 0in /  0.0mm 0 W/m2
22:46 78.8 °F /  26 °C 61.3 °F /  16.3 °C 30in /  1015.6hPa Calm   1mph /  1.6km/h 55% 0in /  0.0mm 0 W/m2
22:51 78.4 °F /  25.8 °C 61 °F /  16.1 °C 30in /  1015.6hPa Calm     55% 0in /  0.0mm 0 W/m2
22:56 78.3 °F /  25.7 °C 60.8 °F /  16 °C 30in /  1015.6hPa Calm   1mph /  1.6km/h 55% 0in /  0.0mm 0 W/m2
23:01 78.1 °F /  25.6 °C 61.2 °F /  16.2 °C 30in /  1015.6hPa Calm     56% 0in /  0.0mm 0 W/m2
23:06 77.7 °F /  25.4 °C 61.3 °F /  16.3 °C 30in /  1015.6hPa Calm   1mph /  1.6km/h 57% 0in /  0.0mm 0 W/m2
23:11 77.4 °F /  25.2 °C 61 °F /  16.1 °C 30in /  1015.6hPa Calm     57% 0in /  0.0mm 0 W/m2
23:16 77.2 °F /  25.1 °C 61.3 °F /  16.3 °C 30in /  1015.6hPa Calm     58% 0in /  0.0mm 0 W/m2
23:21 76.8 °F /  24.9 °C 61.3 °F /  16.3 °C 30in /  1015.6hPa Calm     59% 0in /  0.0mm 0 W/m2
23:26 76.6 °F /  24.8 °C 61.2 °F /  16.2 °C 30in /  1015.6hPa Calm     59% 0in /  0.0mm 0 W/m2
23:32 76.3 °F /  24.6 °C 61 °F /  16.1 °C 30in /  1015.6hPa Calm     59% 0in /  0.0mm 0 W/m2
23:37 76.1 °F /  24.5 °C 61.2 °F /  16.2 °C 30in /  1015.6hPa Calm     60% 0in /  0.0mm 0 W/m2
23:42 75.7 °F /  24.3 °C 60.8 °F /  16 °C 30in /  1015.6hPa Calm     60% 0in /  0.0mm 0 W/m2
23:47 75.7 °F /  24.3 °C 61.3 °F /  16.3 °C 30in /  1015.6hPa Calm     61% 0in /  0.0mm 0 W/m2
23:52 75.4 °F /  24.1 °C 61 °F /  16.1 °C 30in /  1015.6hPa Calm     61% 0in /  0.0mm 0 W/m2
23:57 75.2 °F /  24 °C 60.8 °F /  16 °C 30in /  1015.6hPa Calm     61% 0in /  0.0mm 0 W/m2
Juneau County Weather
Compliments of Weather Underground - 4 mb